createdAt,value
2022-10-19T00:00:01.905Z,97159.09
2022-10-19T00:02:32.790Z,97154.78
2022-10-19T00:05:00.571Z,97156.16
2022-10-19T00:07:28.339Z,97158.22
2022-10-19T00:09:56.075Z,97154.22
2022-10-19T00:12:23.817Z,97158.16
2022-10-19T00:14:52.843Z,97148.16
2022-10-19T00:17:20.501Z,97149.53
2022-10-19T00:19:48.181Z,97151.13
2022-10-19T00:22:15.938Z,97150.53
2022-10-19T00:24:43.841Z,97146.69
2022-10-19T00:27:11.587Z,97145.03
2022-10-19T00:29:39.387Z,97141.41
2022-10-19T00:32:08.422Z,97141.41
2022-10-19T00:34:36.104Z,97138.63
2022-10-19T00:37:03.856Z,97141.34
2022-10-19T00:39:31.542Z,97150.84
2022-10-19T00:41:59.237Z,97148.84
2022-10-19T00:44:59.603Z,97150.69
2022-10-19T00:47:29.187Z,97152.41
2022-10-19T00:49:59.046Z,97152.13
2022-10-19T00:52:27.747Z,97156.22
2022-10-19T00:54:57.707Z,97156.47
2022-10-19T00:57:29.628Z,97155.34
2022-10-19T00:59:58.287Z,97150.34
2022-10-19T01:02:26.395Z,97150.50
2022-10-19T01:04:55.755Z,97148.31
2022-10-19T01:07:24.999Z,97136.84
2022-10-19T01:09:53.160Z,97135.44
2022-10-19T01:12:42.173Z,97135.63
2022-10-19T01:15:19.939Z,97144.88
2022-10-19T01:17:57.276Z,97140.25
2022-10-19T01:21:11.731Z,97137.22
2022-10-19T01:24:18.395Z,97137.72
2022-10-19T01:27:11.712Z,97140.63
2022-10-19T01:30:01.137Z,97140.81
2022-10-19T01:32:39.507Z,97136.69
2022-10-19T01:35:12.031Z,97136.19
2022-10-19T01:37:48.373Z,97131.09
2022-10-19T01:40:24.803Z,97138.72
2022-10-19T01:43:00.923Z,97122.94
2022-10-19T01:45:36.363Z,97127.72
2022-10-19T01:48:08.935Z,97129.38
2022-10-19T01:50:42.052Z,97118.50
2022-10-19T01:53:12.792Z,97123.63
2022-10-19T01:55:43.998Z,97135.47
2022-10-19T01:58:15.465Z,97121.56
2022-10-19T02:00:47.942Z,97116.94
2022-10-19T02:03:16.790Z,97113.63
2022-10-19T02:05:45.843Z,97118.88
2022-10-19T02:08:17.908Z,97129.25
2022-10-19T02:10:47.299Z,97117.75
2022-10-19T02:13:17.359Z,97120.19
2022-10-19T02:15:51.838Z,97116.03
2022-10-19T02:18:25.075Z,97120.97
2022-10-19T02:20:52.803Z,97112.63
2022-10-19T02:23:23.262Z,97122.69
2022-10-19T02:25:51.072Z,97116.03
2022-10-19T02:28:19.260Z,97113.03
2022-10-19T02:30:48.698Z,97106.16
2022-10-19T02:33:17.132Z,97106.16
2022-10-19T02:35:45.073Z,97104.44
2022-10-19T02:38:16.819Z,97111.97
2022-10-19T02:40:50.084Z,97106.53
2022-10-19T02:43:21.341Z,97107.81
2022-10-19T02:45:55.965Z,97100.97
2022-10-19T02:48:25.951Z,97105.78
2022-10-19T02:50:53.619Z,97102.78
2022-10-19T02:53:21.664Z,97103.56
2022-10-19T02:55:50.622Z,97104.84
2022-10-19T02:58:18.343Z,97104.56
2022-10-19T03:00:46.105Z,97098.00
2022-10-19T03:03:15.259Z,97088.78
2022-10-19T03:05:42.991Z,97086.56
2022-10-19T03:08:10.659Z,97093.09
2022-10-19T03:10:38.363Z,97085.44
2022-10-19T03:13:06.333Z,97084.94
2022-10-19T03:15:34.063Z,97083.53
2022-10-19T03:18:01.756Z,97074.25
2022-10-19T03:20:30.827Z,97079.88
2022-10-19T03:22:58.550Z,97080.06
2022-10-19T03:25:26.295Z,97073.66
2022-10-19T03:27:54.233Z,97072.22
2022-10-19T03:30:21.972Z,97066.78
2022-10-19T03:32:49.691Z,97068.69
2022-10-19T03:35:17.598Z,97068.41
2022-10-19T03:37:46.767Z,97073.84
2022-10-19T03:40:14.539Z,97070.28
2022-10-19T03:42:42.271Z,97070.00
2022-10-19T03:45:10.564Z,97074.31
2022-10-19T03:47:38.252Z,97072.91
2022-10-19T03:50:06.832Z,97068.75
2022-10-19T03:52:34.531Z,97069.53
2022-10-19T03:55:03.602Z,97060.59
2022-10-19T03:57:31.520Z,97067.81
2022-10-19T03:59:59.378Z,97068.59
2022-10-19T04:02:27.036Z,97070.06
2022-10-19T04:04:54.727Z,97062.69
2022-10-19T04:07:22.406Z,97074.38
2022-10-19T04:09:50.098Z,97068.47
2022-10-19T04:12:19.249Z,97063.03
2022-10-19T04:14:56.726Z,97063.69
2022-10-19T04:17:25.887Z,97062.38
2022-10-19T04:19:53.563Z,97063.50
2022-10-19T04:22:21.282Z,97061.44
2022-10-19T04:24:48.996Z,97059.84
2022-10-19T04:27:16.791Z,97066.88
2022-10-19T04:29:45.848Z,97071.19
2022-10-19T04:32:13.558Z,97064.63
2022-10-19T04:34:41.290Z,97062.75
2022-10-19T04:37:08.984Z,97065.75
2022-10-19T04:39:39.468Z,97060.03
2022-10-19T04:42:07.166Z,97051.56
2022-10-19T04:44:34.893Z,97045.50
2022-10-19T04:47:03.973Z,97052.81
2022-10-19T04:49:31.690Z,97052.03
2022-10-19T04:51:59.404Z,97047.38
2022-10-19T04:54:27.189Z,97053.31
2022-10-19T04:56:54.859Z,97047.09
2022-10-19T04:59:22.571Z,97045.19
2022-10-19T05:01:50.319Z,97050.28
2022-10-19T05:04:19.399Z,97044.22
2022-10-19T05:06:47.140Z,97046.94
2022-10-19T05:09:14.855Z,97047.75
2022-10-19T05:11:42.538Z,97048.53
2022-10-19T05:14:10.295Z,97043.13
2022-10-19T05:16:37.969Z,97045.03
2022-10-19T05:19:05.708Z,97040.41
2022-10-19T05:21:34.776Z,97047.44
2022-10-19T05:24:02.534Z,97053.66
2022-10-19T05:26:30.420Z,97056.38
2022-10-19T05:29:01.839Z,97051.78
2022-10-19T05:31:31.744Z,97055.28
2022-10-19T05:33:59.733Z,97056.09
2022-10-19T05:36:29.447Z,97046.00
2022-10-19T05:38:58.989Z,97046.66
2022-10-19T05:41:27.451Z,97049.84
2022-10-19T05:43:56.490Z,97047.97
2022-10-19T05:46:25.608Z,97040.59
2022-10-19T05:48:53.579Z,97044.13
2022-10-19T05:51:23.412Z,97050.53
2022-10-19T05:53:51.609Z,97050.53
2022-10-19T05:56:22.663Z,97046.69
2022-10-19T05:58:50.546Z,97051.34
2022-10-19T06:01:19.882Z,97047.50
2022-10-19T06:03:48.215Z,97043.19
2022-10-19T06:06:15.912Z,97037.09
2022-10-19T06:08:43.969Z,97040.63
2022-10-19T06:11:15.278Z,97049.28
2022-10-19T06:13:45.479Z,97049.44
2022-10-19T06:16:14.752Z,97058.41
2022-10-19T06:18:43.164Z,97062.72
2022-10-19T06:21:13.361Z,97063.50
2022-10-19T06:26:11.458Z,97076.00
2022-10-19T06:28:40.614Z,97065.94
2022-10-19T06:31:10.264Z,97075.38
2022-10-19T06:33:39.935Z,97069.94
2022-10-19T06:36:08.798Z,97065.28
2022-10-19T06:38:36.543Z,97055.22
2022-10-19T06:41:04.870Z,97059.56
2022-10-19T06:43:32.911Z,97062.41
2022-10-19T06:46:05.511Z,97063.22
2022-10-19T06:48:34.635Z,97063.41
2022-10-19T06:51:06.231Z,97064.19
2022-10-19T06:53:34.803Z,97060.84
2022-10-19T06:56:03.891Z,97061.31
2022-10-19T06:58:31.798Z,97063.75
2022-10-19T07:01:00.910Z,97064.72
2022-10-19T07:03:30.503Z,97070.44
2022-10-19T07:06:02.996Z,97065.00
2022-10-19T07:08:32.692Z,97070.97
2022-10-19T07:11:02.109Z,97078.47
2022-10-19T07:13:31.595Z,97070.97
2022-10-19T07:16:00.195Z,97076.56
2022-10-19T07:18:28.280Z,97072.25
2022-10-19T07:20:57.499Z,97070.03
2022-10-19T07:23:28.943Z,97075.59
2022-10-19T07:26:01.490Z,97069.88
2022-10-19T07:28:30.183Z,97079.31
2022-10-19T07:30:58.254Z,97068.91
2022-10-19T07:33:26.286Z,97077.72
2022-10-19T07:36:00.047Z,97067.84
2022-10-19T07:38:29.982Z,97076.63
2022-10-19T07:41:01.784Z,97060.47
2022-10-19T07:43:29.500Z,97062.25
2022-10-19T07:46:01.636Z,97071.03
2022-10-19T07:48:29.671Z,97070.06
2022-10-19T07:50:57.428Z,97078.88
2022-10-19T07:53:25.328Z,97069.41
2022-10-19T07:55:54.367Z,97074.41
2022-10-19T07:58:22.137Z,97079.19
2022-10-19T08:00:49.971Z,97076.78
2022-10-19T08:06:07.417Z,97075.63
2022-10-19T08:08:35.287Z,97070.66
2022-10-19T08:11:09.509Z,97078.19
2022-10-19T08:13:37.794Z,97079.16
2022-10-19T08:16:05.893Z,97075.44
2022-10-19T08:18:33.700Z,97073.69
2022-10-19T08:21:03.512Z,97077.81
2022-10-19T08:23:31.187Z,97070.41
2022-10-19T08:25:59.315Z,97073.16
2022-10-19T08:28:28.443Z,97073.13
2022-10-19T08:30:58.857Z,97076.13
2022-10-19T08:33:27.581Z,97081.56
2022-10-19T08:35:55.278Z,97084.25
2022-10-19T08:38:22.959Z,97086.00
2022-10-19T08:40:50.675Z,97091.25
2022-10-19T08:43:25.807Z,97081.63
2022-10-19T08:46:02.411Z,97088.94
2022-10-19T08:48:32.834Z,97088.28
2022-10-19T08:51:01.884Z,97099.03
2022-10-19T08:53:36.876Z,97098.38
2022-10-19T08:56:26.809Z,97092.91
2022-10-19T08:59:11.598Z,97098.63
2022-10-19T09:01:47.074Z,97093.19
2022-10-19T09:04:20.672Z,97098.31
2022-10-19T09:06:58.093Z,97093.19
2022-10-19T09:09:28.237Z,97090.06
2022-10-19T09:12:01.907Z,97088.25
2022-10-19T09:14:36.275Z,97097.75
2022-10-19T09:17:13.266Z,97099.34
2022-10-19T09:19:40.999Z,97093.53
2022-10-19T09:22:15.880Z,97087.56
2022-10-19T09:24:47.329Z,97082.50
2022-10-19T09:27:21.062Z,97080.06
2022-10-19T09:29:54.803Z,97078.72
2022-10-19T09:32:27.982Z,97088.66
2022-10-19T09:35:01.078Z,97080.16
2022-10-19T09:40:02.640Z,97091.03
2022-10-19T09:42:33.405Z,97092.38
2022-10-19T09:45:03.729Z,97100.22
2022-10-19T09:47:36.452Z,97099.28
2022-10-19T09:50:14.890Z,97102.38
2022-10-19T09:52:44.611Z,97105.03
2022-10-19T09:55:23.935Z,97097.72
2022-10-19T09:57:59.468Z,97094.63
2022-10-19T10:00:34.950Z,97096.09
2022-10-19T10:03:05.875Z,97099.16
2022-10-19T10:05:35.840Z,97097.91
2022-10-19T10:08:05.107Z,97099.38
2022-10-19T10:10:37.927Z,97098.38
2022-10-19T10:13:06.873Z,97097.72
2022-10-19T10:15:44.058Z,97093.19
2022-10-19T10:18:17.114Z,97096.34
2022-10-19T10:20:58.798Z,97086.50
2022-10-19T10:23:28.377Z,97089.47
2022-10-19T10:25:57.901Z,97081.25
2022-10-19T10:28:27.934Z,97082.75
2022-10-19T10:31:01.129Z,97080.34
2022-10-19T10:33:46.090Z,97080.59
2022-10-19T10:36:14.294Z,97071.59
2022-10-19T10:38:45.988Z,97075.94
2022-10-19T10:41:15.810Z,97074.34
2022-10-19T10:43:53.922Z,97061.13
2022-10-19T10:46:25.753Z,97062.38
2022-10-19T10:48:59.160Z,97061.38
2022-10-19T10:51:34.411Z,97062.16
2022-10-19T10:54:16.804Z,97061.38
2022-10-19T10:56:46.798Z,97062.97
2022-10-19T10:59:19.693Z,97063.75
2022-10-19T11:01:59.701Z,97061.47
2022-10-19T11:04:34.911Z,97061.38
2022-10-19T11:07:15.800Z,97060.50
2022-10-19T11:09:47.053Z,97058.81
2022-10-19T11:12:19.224Z,97054.63
2022-10-19T11:14:50.219Z,97048.03
2022-10-19T11:17:21.754Z,97044.84
2022-10-19T11:19:51.343Z,97046.66
2022-10-19T11:22:27.203Z,97050.06
2022-10-19T11:25:25.800Z,97045.75
2022-10-19T11:28:04.939Z,97041.84
2022-10-19T11:30:41.576Z,97034.78
2022-10-19T11:33:23.268Z,97033.06
2022-10-19T11:35:54.919Z,97033.75
2022-10-19T11:38:42.489Z,97026.69
2022-10-19T11:41:22.275Z,97026.34
2022-10-19T11:44:04.008Z,97024.44
2022-10-19T11:46:39.451Z,97025.78
2022-10-19T11:49:22.744Z,97015.41
2022-10-19T11:51:57.899Z,97014.81
2022-10-19T11:54:44.106Z,97019.72
2022-10-19T11:57:17.011Z,97022.31
2022-10-19T12:00:14.789Z,97015.03
2022-10-19T12:03:22.581Z,97001.59
2022-10-19T12:06:01.715Z,97000.09
2022-10-19T12:08:48.298Z,97003.03
2022-10-19T12:11:29.079Z,96988.56
2022-10-19T12:14:00.461Z,96992.09
2022-10-19T12:16:36.587Z,96976.13
2022-10-19T12:19:06.722Z,96981.69
2022-10-19T12:21:38.747Z,96976.44
2022-10-19T12:24:16.307Z,96973.63
2022-10-19T12:26:45.823Z,96971.38
2022-10-19T12:29:16.814Z,96964.97
2022-10-19T12:31:45.623Z,96966.22
2022-10-19T12:34:32.494Z,96965.56
2022-10-19T12:37:08.375Z,96963.72
2022-10-19T12:39:43.811Z,96962.50
2022-10-19T12:42:20.013Z,96958.94
2022-10-19T12:45:26.066Z,96959.06
2022-10-19T12:48:20.002Z,96952.78
2022-10-19T12:51:06.603Z,96942.03
2022-10-19T12:53:38.055Z,96950.50
2022-10-19T12:56:12.283Z,96946.28
2022-10-19T12:58:48.165Z,96945.94
2022-10-19T13:01:20.699Z,96943.00
2022-10-19T13:03:51.583Z,96938.44
2022-10-19T13:06:31.247Z,96937.88
2022-10-19T13:09:01.673Z,96933.31
2022-10-19T13:11:31.132Z,96927.59
2022-10-19T13:14:01.615Z,96926.47
2022-10-19T13:17:03.248Z,96933.28
2022-10-19T13:19:31.096Z,96937.75
2022-10-19T13:22:26.900Z,96919.97
2022-10-19T13:25:23.437Z,96926.03
2022-10-19T13:27:52.365Z,96922.69
2022-10-19T13:31:03.381Z,96917.69
2022-10-19T13:33:51.794Z,96918.38
2022-10-19T13:36:20.976Z,96909.38
2022-10-19T13:39:06.083Z,96914.16
2022-10-19T13:41:54.411Z,96905.25
2022-10-19T13:44:27.478Z,96904.81
2022-10-19T13:47:08.162Z,96906.25
2022-10-19T13:50:01.500Z,96910.31
2022-10-19T13:52:51.055Z,96901.91
2022-10-19T13:55:54.839Z,96904.28
2022-10-19T13:58:51.348Z,96896.94
2022-10-19T14:01:31.005Z,96895.50
2022-10-19T14:04:14.774Z,96895.50
2022-10-19T14:06:45.376Z,96877.63
2022-10-19T14:09:47.180Z,96878.53
2022-10-19T14:12:22.215Z,96884.09
2022-10-19T14:14:51.929Z,96877.72
2022-10-19T14:17:24.209Z,96877.47
2022-10-19T14:19:54.390Z,96879.16
2022-10-19T14:22:27.329Z,96874.66
2022-10-19T14:25:03.154Z,96863.16
2022-10-19T14:27:33.238Z,96865.94
2022-10-19T14:30:01.418Z,96864.53
2022-10-19T14:32:30.453Z,96857.59
2022-10-19T14:37:32.581Z,96862.34
2022-10-19T14:40:03.136Z,96854.03
2022-10-19T14:42:44.391Z,96849.06
2022-10-19T14:45:18.291Z,96845.41
2022-10-19T14:47:57.211Z,96846.25
2022-10-19T14:50:34.162Z,96849.59
2022-10-19T14:53:09.533Z,96845.75
2022-10-19T14:55:40.716Z,96848.63
2022-10-19T14:58:14.761Z,96843.03
2022-10-19T15:00:44.044Z,96841.31
2022-10-19T15:03:18.407Z,96843.94
2022-10-19T15:05:48.748Z,96834.50
2022-10-19T15:08:25.037Z,96828.56
2022-10-19T15:10:53.370Z,96829.38
2022-10-19T15:13:27.578Z,96828.50
2022-10-19T15:15:55.778Z,96818.13
2022-10-19T15:18:47.642Z,96816.78
2022-10-19T15:21:15.437Z,96816.66
2022-10-19T15:23:45.547Z,96818.72
2022-10-19T15:26:20.207Z,96819.41
2022-10-19T15:28:50.278Z,96813.09
2022-10-19T15:31:21.130Z,96817.53
2022-10-19T15:33:51.630Z,96814.09
2022-10-19T15:36:21.183Z,96804.84
2022-10-19T15:38:50.534Z,96801.06
2022-10-19T15:41:21.382Z,96800.50
2022-10-19T15:43:52.978Z,96798.44
2022-10-19T15:46:31.513Z,96795.13
2022-10-19T15:49:02.140Z,96785.56
2022-10-19T15:51:36.166Z,96786.91
2022-10-19T15:54:06.867Z,96793.69
2022-10-19T15:56:38.248Z,96790.03
2022-10-19T15:59:12.112Z,96792.66
2022-10-19T16:01:39.918Z,96787.75
2022-10-19T16:04:07.621Z,96787.94
2022-10-19T16:06:38.665Z,96787.03
2022-10-19T16:09:08.238Z,96794.97
2022-10-19T16:11:36.468Z,96785.38
2022-10-19T16:14:04.257Z,96781.56
2022-10-19T16:16:35.837Z,96784.81
2022-10-19T16:19:03.970Z,96775.91
2022-10-19T16:21:34.967Z,96781.25
2022-10-19T16:24:02.766Z,96771.00
2022-10-19T16:26:32.038Z,96776.16
2022-10-19T16:29:00.292Z,96770.59
2022-10-19T16:31:28.431Z,96779.75
2022-10-19T16:33:57.517Z,96769.38
2022-10-19T16:36:25.281Z,96776.59
2022-10-19T16:38:53.056Z,96770.56
2022-10-19T16:41:20.842Z,96775.06
2022-10-19T16:43:49.055Z,96767.88
2022-10-19T16:46:16.801Z,96771.47
2022-10-19T16:48:44.484Z,96771.81
2022-10-19T16:51:34.361Z,96767.69
2022-10-19T16:54:02.150Z,96770.94
2022-10-19T16:56:31.765Z,96766.31
2022-10-19T16:59:01.344Z,96755.13
2022-10-19T17:01:30.178Z,96749.69
2022-10-19T17:03:58.135Z,96750.34
2022-10-19T17:06:28.119Z,96757.72
2022-10-19T17:11:45.532Z,96769.88
2022-10-19T17:14:14.091Z,96766.34
2022-10-19T17:16:41.851Z,96767.63
2022-10-19T17:19:10.995Z,96765.72
2022-10-19T17:21:42.200Z,96769.69
2022-10-19T17:24:18.422Z,96769.06
2022-10-19T17:26:50.252Z,96772.41
2022-10-19T17:29:18.048Z,96771.16
2022-10-19T17:31:46.054Z,96786.69
2022-10-19T17:34:13.869Z,96779.63
2022-10-19T17:36:45.389Z,96776.44
2022-10-19T17:39:17.431Z,96787.97
2022-10-19T17:41:45.731Z,96780.47
2022-10-19T17:44:13.667Z,96788.16
2022-10-19T17:46:41.507Z,96788.03
2022-10-19T17:49:11.595Z,96796.03
2022-10-19T17:51:40.274Z,96797.78
2022-10-19T17:54:13.346Z,96798.44
2022-10-19T17:56:44.763Z,96798.59
2022-10-19T17:59:12.726Z,96797.00
2022-10-19T18:01:40.828Z,96805.34
2022-10-19T18:04:08.647Z,96797.34
2022-10-19T18:06:38.066Z,96803.44
2022-10-19T18:09:07.720Z,96808.88
2022-10-19T18:11:38.732Z,96802.78
2022-10-19T18:14:08.861Z,96805.19
2022-10-19T18:16:38.485Z,96798.78
2022-10-19T18:19:08.048Z,96809.50
2022-10-19T18:21:38.732Z,96807.44
2022-10-19T18:24:10.192Z,96791.75
2022-10-19T18:26:41.919Z,96791.44
2022-10-19T18:29:12.879Z,96784.09
2022-10-19T18:31:41.514Z,96785.38
2022-10-19T18:34:14.311Z,96780.56
2022-10-19T18:36:42.260Z,96778.31
2022-10-19T18:39:11.830Z,96783.59
2022-10-19T18:41:40.470Z,96778.50
2022-10-19T18:44:13.151Z,96774.66
2022-10-19T18:46:41.220Z,96777.53
2022-10-19T18:49:09.799Z,96769.22
2022-10-19T18:51:37.687Z,96772.91
2022-10-19T18:54:05.966Z,96779.63
2022-10-19T18:56:36.369Z,96767.31
2022-10-19T18:59:04.475Z,96771.16
2022-10-19T19:01:33.581Z,96769.56
2022-10-19T19:04:07.819Z,96770.69
2022-10-19T19:06:36.209Z,96770.84
2022-10-19T19:09:07.446Z,96765.56
2022-10-19T19:11:38.065Z,96768.44
2022-10-19T19:14:08.675Z,96758.84
2022-10-19T19:16:39.116Z,96752.28
2022-10-19T19:19:07.799Z,96756.63
2022-10-19T19:21:36.499Z,96748.78
2022-10-19T19:24:06.464Z,96742.88
2022-10-19T19:26:38.104Z,96744.16
2022-10-19T19:29:05.923Z,96751.03
2022-10-19T19:31:34.019Z,96748.94
2022-10-19T19:34:05.736Z,96740.31
2022-10-19T19:36:33.638Z,96741.75
2022-10-19T19:39:01.375Z,96736.16
2022-10-19T19:41:31.133Z,96739.50
2022-10-19T19:43:58.951Z,96731.34
2022-10-19T19:46:27.491Z,96734.69
2022-10-19T19:48:59.788Z,96733.72
2022-10-19T19:51:30.030Z,96744.75
2022-10-19T19:53:58.122Z,96741.88
2022-10-19T19:56:26.129Z,96735.47
2022-10-19T19:58:56.551Z,96728.44
2022-10-19T20:01:25.168Z,96734.81
2022-10-19T20:03:53.107Z,96733.53
2022-10-19T20:06:23.670Z,96731.16
2022-10-19T20:08:56.284Z,96736.09
2022-10-19T20:11:25.516Z,96734.97
2022-10-19T20:13:53.592Z,96735.75
2022-10-19T20:16:26.548Z,96735.63
2022-10-19T20:19:00.849Z,96730.81
2022-10-19T20:21:28.589Z,96730.97
2022-10-19T20:23:57.758Z,96730.31
2022-10-19T20:26:26.312Z,96715.47
2022-10-19T20:28:54.587Z,96714.00
2022-10-19T20:31:22.629Z,96720.06
2022-10-19T20:33:50.519Z,96726.59
2022-10-19T20:36:20.899Z,96730.44
2022-10-19T20:38:50.515Z,96735.69
2022-10-19T20:41:20.942Z,96736.50
2022-10-19T20:43:49.211Z,96744.59
2022-10-19T20:46:18.692Z,96744.41
2022-10-19T20:48:46.802Z,96746.66
2022-10-19T20:51:17.151Z,96744.75
2022-10-19T20:53:47.110Z,96739.97
2022-10-19T20:56:16.287Z,96737.88
2022-10-19T20:58:45.795Z,96727.63
2022-10-19T21:01:15.837Z,96724.13
2022-10-19T21:03:47.216Z,96725.06
2022-10-19T21:06:15.213Z,96724.75
2022-10-19T21:08:43.364Z,96713.25
2022-10-19T21:11:15.348Z,96704.91
2022-10-19T21:13:43.521Z,96700.00
2022-10-19T21:16:14.432Z,96698.69
2022-10-19T21:18:43.307Z,96688.00
2022-10-19T21:21:13.180Z,96697.72
2022-10-19T21:23:41.248Z,96690.41
2022-10-19T21:26:08.957Z,96696.94
2022-10-19T21:28:37.143Z,96694.88
2022-10-19T21:31:05.450Z,96690.41
2022-10-19T21:33:34.565Z,96689.72
2022-10-19T21:36:03.159Z,96686.22
2022-10-19T21:38:31.486Z,96690.66
2022-10-19T21:40:59.684Z,96686.38
2022-10-19T21:43:31.307Z,96681.09
2022-10-19T21:45:59.129Z,96678.53
2022-10-19T21:48:26.873Z,96679.94
2022-10-19T21:50:55.968Z,96674.66
2022-10-19T21:53:24.479Z,96674.16
2022-10-19T21:55:52.972Z,96665.84
2022-10-19T21:58:22.208Z,96664.56
2022-10-19T22:00:53.878Z,96659.44
2022-10-19T22:03:21.541Z,96650.50
2022-10-19T22:05:52.680Z,96654.81
2022-10-19T22:08:21.731Z,96665.16
2022-10-19T22:10:49.457Z,96665.50
2022-10-19T22:13:17.306Z,96669.59
2022-10-19T22:15:45.477Z,96669.75
2022-10-19T22:18:13.194Z,96671.47
2022-10-19T22:20:41.262Z,96670.00
2022-10-19T22:23:09.348Z,96670.28
2022-10-19T22:25:38.434Z,96673.50
2022-10-19T22:28:06.122Z,96674.13
2022-10-19T22:30:33.878Z,96672.97
2022-10-19T22:33:01.636Z,96677.88
2022-10-19T22:35:29.328Z,96675.00
2022-10-19T22:37:57.040Z,96664.78
2022-10-19T22:40:24.703Z,96665.91
2022-10-19T22:42:53.735Z,96665.41
2022-10-19T22:45:21.435Z,96665.22
2022-10-19T22:47:49.128Z,96662.81
2022-10-19T22:50:16.846Z,96666.66
2022-10-19T22:52:44.548Z,96664.41
2022-10-19T22:55:12.241Z,96661.50
2022-10-19T22:57:39.937Z,96666.13
2022-10-19T23:00:10.398Z,96666.44
2022-10-19T23:02:38.354Z,96659.44
2022-10-19T23:05:06.879Z,96667.84
2022-10-19T23:07:34.840Z,96656.72
2022-10-19T23:10:02.683Z,96651.44
2022-10-19T23:12:30.407Z,96652.38
2022-10-19T23:14:58.209Z,96664.28
2022-10-19T23:17:27.309Z,96665.22
2022-10-19T23:19:55.048Z,96659.31
2022-10-19T23:22:22.765Z,96653.09
2022-10-19T23:24:50.438Z,96651.00
2022-10-19T23:27:18.187Z,96651.91
2022-10-19T23:29:45.877Z,96653.34
2022-10-19T23:32:13.615Z,96647.41
2022-10-19T23:34:44.566Z,96643.44
2022-10-19T23:37:15.410Z,96641.94
2022-10-19T23:39:43.120Z,96639.53
2022-10-19T23:42:10.820Z,96648.78
2022-10-19T23:44:38.483Z,96644.97
2022-10-19T23:47:06.249Z,96642.25
2022-10-19T23:49:33.968Z,96650.97
2022-10-19T23:52:03.003Z,96645.38
2022-10-19T23:54:30.738Z,96643.78
2022-10-19T23:56:58.448Z,96644.75
2022-10-19T23:59:26.354Z,96635.56
